sensor_id;sensor_type;location;lat;lon;timestamp;P1;durP1;ratioP1;P2;durP2;ratioP2
6751;SDS011;3413;47.680;9.166;2022-09-09T00:11:52;9.53;;;1.73;;
6751;SDS011;3413;47.680;9.166;2022-09-09T00:16:55;7.10;;;1.83;;
6751;SDS011;3413;47.680;9.166;2022-09-09T00:22:23;4.90;;;1.83;;
6751;SDS011;3413;47.680;9.166;2022-09-09T00:27:29;2.63;;;1.40;;
6751;SDS011;3413;47.680;9.166;2022-09-09T00:32:33;4.90;;;1.93;;
6751;SDS011;3413;47.680;9.166;2022-09-09T00:37:37;3.83;;;1.80;;
6751;SDS011;3413;47.680;9.166;2022-09-09T00:42:42;3.80;;;1.70;;
6751;SDS011;3413;47.680;9.166;2022-09-09T00:47:51;2.77;;;1.60;;
6751;SDS011;3413;47.680;9.166;2022-09-09T00:58:29;7.73;;;1.70;;
6751;SDS011;3413;47.680;9.166;2022-09-09T01:14:10;3.40;;;1.70;;
6751;SDS011;3413;47.680;9.166;2022-09-09T01:19:17;6.53;;;1.90;;
6751;SDS011;3413;47.680;9.166;2022-09-09T01:30:42;2.90;;;1.60;;
6751;SDS011;3413;47.680;9.166;2022-09-09T01:35:50;4.87;;;1.93;;
6751;SDS011;3413;47.680;9.166;2022-09-09T01:41:00;5.03;;;1.50;;
6751;SDS011;3413;47.680;9.166;2022-09-09T01:46:13;4.87;;;1.70;;
6751;SDS011;3413;47.680;9.166;2022-09-09T01:51:16;8.63;;;1.80;;
6751;SDS011;3413;47.680;9.166;2022-09-09T02:06:52;4.80;;;1.70;;
6751;SDS011;3413;47.680;9.166;2022-09-09T02:12:05;3.47;;;1.80;;
6751;SDS011;3413;47.680;9.166;2022-09-09T02:17:31;6.60;;;2.53;;
6751;SDS011;3413;47.680;9.166;2022-09-09T02:22:45;5.30;;;2.13;;
6751;SDS011;3413;47.680;9.166;2022-09-09T02:27:52;4.07;;;1.97;;
6751;SDS011;3413;47.680;9.166;2022-09-09T02:32:55;6.10;;;2.57;;
6751;SDS011;3413;47.680;9.166;2022-09-09T02:38:16;9.33;;;2.37;;
6751;SDS011;3413;47.680;9.166;2022-09-09T02:43:32;10.80;;;2.40;;
6751;SDS011;3413;47.680;9.166;2022-09-09T02:59:09;6.37;;;2.33;;
6751;SDS011;3413;47.680;9.166;2022-09-09T03:04:13;9.07;;;2.50;;
6751;SDS011;3413;47.680;9.166;2022-09-09T03:09:15;6.77;;;2.47;;
6751;SDS011;3413;47.680;9.166;2022-09-09T03:14:17;6.13;;;2.70;;
6751;SDS011;3413;47.680;9.166;2022-09-09T03:19:22;11.00;;;3.30;;
6751;SDS011;3413;47.680;9.166;2022-09-09T03:24:25;6.43;;;2.27;;
6751;SDS011;3413;47.680;9.166;2022-09-09T03:29:27;7.17;;;2.30;;
6751;SDS011;3413;47.680;9.166;2022-09-09T03:34:32;8.00;;;2.97;;
6751;SDS011;3413;47.680;9.166;2022-09-09T03:39:34;7.40;;;2.67;;
6751;SDS011;3413;47.680;9.166;2022-09-09T03:44:37;6.90;;;2.53;;
6751;SDS011;3413;47.680;9.166;2022-09-09T03:49:40;7.47;;;2.77;;
6751;SDS011;3413;47.680;9.166;2022-09-09T03:54:42;6.70;;;2.27;;
6751;SDS011;3413;47.680;9.166;2022-09-09T03:59:44;5.50;;;2.50;;
6751;SDS011;3413;47.680;9.166;2022-09-09T04:04:47;6.93;;;2.30;;
6751;SDS011;3413;47.680;9.166;2022-09-09T04:09:49;7.23;;;2.40;;
6751;SDS011;3413;47.680;9.166;2022-09-09T04:14:52;4.80;;;2.33;;
6751;SDS011;3413;47.680;9.166;2022-09-09T04:19:54;11.17;;;2.17;;
6751;SDS011;3413;47.680;9.166;2022-09-09T04:24:56;5.27;;;3.07;;
6751;SDS011;3413;47.680;9.166;2022-09-09T04:29:58;5.67;;;2.50;;
6751;SDS011;3413;47.680;9.166;2022-09-09T04:35:04;10.50;;;2.97;;
6751;SDS011;3413;47.680;9.166;2022-09-09T04:40:08;4.73;;;2.57;;
6751;SDS011;3413;47.680;9.166;2022-09-09T04:45:13;9.00;;;2.30;;
6751;SDS011;3413;47.680;9.166;2022-09-09T04:50:15;8.70;;;2.27;;
6751;SDS011;3413;47.680;9.166;2022-09-09T04:55:20;6.80;;;2.80;;
6751;SDS011;3413;47.680;9.166;2022-09-09T05:00:23;8.87;;;2.13;;
6751;SDS011;3413;47.680;9.166;2022-09-09T05:05:26;6.03;;;1.70;;
6751;SDS011;3413;47.680;9.166;2022-09-09T05:10:30;4.30;;;1.93;;
6751;SDS011;3413;47.680;9.166;2022-09-09T05:15:33;4.83;;;1.87;;
6751;SDS011;3413;47.680;9.166;2022-09-09T05:20:36;9.33;;;1.83;;
6751;SDS011;3413;47.680;9.166;2022-09-09T05:25:39;3.67;;;1.80;;
6751;SDS011;3413;47.680;9.166;2022-09-09T05:30:45;5.37;;;1.83;;
6751;SDS011;3413;47.680;9.166;2022-09-09T05:35:54;4.23;;;1.60;;
6751;SDS011;3413;47.680;9.166;2022-09-09T05:41:04;4.73;;;2.00;;
6751;SDS011;3413;47.680;9.166;2022-09-09T05:51:13;7.33;;;1.73;;
6751;SDS011;3413;47.680;9.166;2022-09-09T05:56:21;5.00;;;1.90;;
6751;SDS011;3413;47.680;9.166;2022-09-09T06:01:27;7.27;;;1.60;;
6751;SDS011;3413;47.680;9.166;2022-09-09T06:06:36;3.60;;;1.67;;
6751;SDS011;3413;47.680;9.166;2022-09-09T06:11:46;4.70;;;1.67;;
6751;SDS011;3413;47.680;9.166;2022-09-09T06:16:49;7.13;;;1.80;;
6751;SDS011;3413;47.680;9.166;2022-09-09T06:21:55;3.10;;;1.77;;
6751;SDS011;3413;47.680;9.166;2022-09-09T06:26:57;2.93;;;1.60;;
6751;SDS011;3413;47.680;9.166;2022-09-09T06:32:02;4.07;;;1.70;;
6751;SDS011;3413;47.680;9.166;2022-09-09T06:37:05;5.03;;;2.30;;
6751;SDS011;3413;47.680;9.166;2022-09-09T06:42:15;5.77;;;1.83;;
6751;SDS011;3413;47.680;9.166;2022-09-09T06:47:30;3.50;;;1.50;;
6751;SDS011;3413;47.680;9.166;2022-09-09T06:52:32;5.50;;;1.93;;
6751;SDS011;3413;47.680;9.166;2022-09-09T06:57:35;4.30;;;1.83;;
6751;SDS011;3413;47.680;9.166;2022-09-09T07:02:47;2.73;;;1.60;;
6751;SDS011;3413;47.680;9.166;2022-09-09T07:07:50;6.10;;;1.80;;
6751;SDS011;3413;47.680;9.166;2022-09-09T07:12:53;6.77;;;1.83;;
6751;SDS011;3413;47.680;9.166;2022-09-09T07:18:00;2.90;;;1.63;;
6751;SDS011;3413;47.680;9.166;2022-09-09T07:23:04;5.37;;;1.70;;
6751;SDS011;3413;47.680;9.166;2022-09-09T07:28:06;6.10;;;1.57;;
6751;SDS011;3413;47.680;9.166;2022-09-09T07:33:09;3.73;;;1.40;;
6751;SDS011;3413;47.680;9.166;2022-09-09T07:38:11;4.57;;;1.60;;
6751;SDS011;3413;47.680;9.166;2022-09-09T07:43:13;3.40;;;1.10;;
6751;SDS011;3413;47.680;9.166;2022-09-09T07:48:18;3.47;;;1.30;;
6751;SDS011;3413;47.680;9.166;2022-09-09T07:53:20;4.50;;;2.23;;
6751;SDS011;3413;47.680;9.166;2022-09-09T07:58:24;2.77;;;1.33;;
6751;SDS011;3413;47.680;9.166;2022-09-09T08:03:26;3.70;;;1.17;;
6751;SDS011;3413;47.680;9.166;2022-09-09T08:08:28;3.60;;;1.47;;
6751;SDS011;3413;47.680;9.166;2022-09-09T08:13:31;4.07;;;1.60;;
6751;SDS011;3413;47.680;9.166;2022-09-09T08:18:34;9.30;;;1.67;;
6751;SDS011;3413;47.680;9.166;2022-09-09T08:23:37;2.27;;;1.10;;
6751;SDS011;3413;47.680;9.166;2022-09-09T08:28:40;2.27;;;1.10;;
6751;SDS011;3413;47.680;9.166;2022-09-09T08:33:44;4.37;;;1.27;;
6751;SDS011;3413;47.680;9.166;2022-09-09T08:38:47;4.37;;;1.00;;
6751;SDS011;3413;47.680;9.166;2022-09-09T08:43:58;3.70;;;1.37;;
6751;SDS011;3413;47.680;9.166;2022-09-09T08:49:34;3.43;;;1.13;;
6751;SDS011;3413;47.680;9.166;2022-09-09T08:55:05;2.27;;;1.27;;
6751;SDS011;3413;47.680;9.166;2022-09-09T09:00:12;5.20;;;1.40;;
6751;SDS011;3413;47.680;9.166;2022-09-09T09:10:32;3.97;;;1.40;;
6751;SDS011;3413;47.680;9.166;2022-09-09T09:15:46;4.30;;;1.20;;
6751;SDS011;3413;47.680;9.166;2022-09-09T09:20:54;3.97;;;1.47;;
6751;SDS011;3413;47.680;9.166;2022-09-09T09:26:01;3.20;;;1.10;;
6751;SDS011;3413;47.680;9.166;2022-09-09T09:31:05;5.27;;;1.23;;
6751;SDS011;3413;47.680;9.166;2022-09-09T09:36:10;4.70;;;1.20;;
6751;SDS011;3413;47.680;9.166;2022-09-09T09:41:15;2.17;;;1.20;;
6751;SDS011;3413;47.680;9.166;2022-09-09T09:46:20;4.70;;;1.57;;
6751;SDS011;3413;47.680;9.166;2022-09-09T09:51:34;4.37;;;1.60;;
6751;SDS011;3413;47.680;9.166;2022-09-09T09:56:37;5.20;;;1.30;;
6751;SDS011;3413;47.680;9.166;2022-09-09T10:01:41;7.17;;;1.47;;
6751;SDS011;3413;47.680;9.166;2022-09-09T10:06:45;4.70;;;1.33;;
6751;SDS011;3413;47.680;9.166;2022-09-09T10:11:51;2.50;;;1.20;;
6751;SDS011;3413;47.680;9.166;2022-09-09T10:22:35;4.60;;;1.40;;
6751;SDS011;3413;47.680;9.166;2022-09-09T10:33:04;4.03;;;1.33;;
6751;SDS011;3413;47.680;9.166;2022-09-09T10:38:16;4.30;;;1.10;;
6751;SDS011;3413;47.680;9.166;2022-09-09T10:49:22;3.23;;;1.00;;
6751;SDS011;3413;47.680;9.166;2022-09-09T10:54:34;6.00;;;1.30;;
6751;SDS011;3413;47.680;9.166;2022-09-09T11:00:31;3.80;;;1.40;;
6751;SDS011;3413;47.680;9.166;2022-09-09T11:05:49;5.93;;;1.40;;
6751;SDS011;3413;47.680;9.166;2022-09-09T11:16:49;5.00;;;1.40;;
6751;SDS011;3413;47.680;9.166;2022-09-09T11:21:55;4.90;;;1.50;;
6751;SDS011;3413;47.680;9.166;2022-09-09T11:27:03;3.37;;;1.20;;
6751;SDS011;3413;47.680;9.166;2022-09-09T11:32:44;7.70;;;1.30;;
6751;SDS011;3413;47.680;9.166;2022-09-09T11:43:01;5.90;;;1.00;;
6751;SDS011;3413;47.680;9.166;2022-09-09T11:48:05;3.90;;;1.13;;
6751;SDS011;3413;47.680;9.166;2022-09-09T11:53:23;4.17;;;1.30;;
6751;SDS011;3413;47.680;9.166;2022-09-09T11:58:25;3.17;;;1.00;;
6751;SDS011;3413;47.680;9.166;2022-09-09T12:08:34;3.13;;;1.70;;
6751;SDS011;3413;47.680;9.166;2022-09-09T12:13:38;2.90;;;1.20;;
6751;SDS011;3413;47.680;9.166;2022-09-09T12:18:40;1.73;;;0.80;;
6751;SDS011;3413;47.680;9.166;2022-09-09T12:24:07;4.10;;;1.20;;
6751;SDS011;3413;47.680;9.166;2022-09-09T12:34:14;2.83;;;1.13;;
6751;SDS011;3413;47.680;9.166;2022-09-09T12:39:18;2.50;;;1.23;;
6751;SDS011;3413;47.680;9.166;2022-09-09T12:44:29;4.90;;;1.10;;
6751;SDS011;3413;47.680;9.166;2022-09-09T12:49:35;2.73;;;1.10;;
6751;SDS011;3413;47.680;9.166;2022-09-09T12:54:42;3.03;;;1.13;;
6751;SDS011;3413;47.680;9.166;2022-09-09T12:59:47;4.63;;;1.20;;
6751;SDS011;3413;47.680;9.166;2022-09-09T13:04:49;6.90;;;1.40;;
6751;SDS011;3413;47.680;9.166;2022-09-09T13:09:52;6.07;;;1.40;;
6751;SDS011;3413;47.680;9.166;2022-09-09T13:14:54;3.20;;;1.40;;
6751;SDS011;3413;47.680;9.166;2022-09-09T13:19:57;4.20;;;1.23;;
6751;SDS011;3413;47.680;9.166;2022-09-09T13:30:25;3.53;;;1.07;;
6751;SDS011;3413;47.680;9.166;2022-09-09T13:35:54;5.70;;;1.10;;
6751;SDS011;3413;47.680;9.166;2022-09-09T13:41:04;2.90;;;1.00;;
6751;SDS011;3413;47.680;9.166;2022-09-09T13:51:45;4.90;;;1.30;;
6751;SDS011;3413;47.680;9.166;2022-09-09T13:56:48;3.60;;;1.30;;
6751;SDS011;3413;47.680;9.166;2022-09-09T14:01:50;2.13;;;1.00;;
6751;SDS011;3413;47.680;9.166;2022-09-09T14:06:53;4.23;;;1.10;;
6751;SDS011;3413;47.680;9.166;2022-09-09T14:11:57;3.23;;;1.20;;
6751;SDS011;3413;47.680;9.166;2022-09-09T14:16:58;3.30;;;1.10;;
6751;SDS011;3413;47.680;9.166;2022-09-09T14:22:00;5.40;;;1.43;;
6751;SDS011;3413;47.680;9.166;2022-09-09T14:27:02;6.57;;;1.40;;
6751;SDS011;3413;47.680;9.166;2022-09-09T14:32:04;3.00;;;1.30;;
6751;SDS011;3413;47.680;9.166;2022-09-09T14:37:12;3.50;;;1.30;;
6751;SDS011;3413;47.680;9.166;2022-09-09T14:42:14;3.33;;;1.53;;
6751;SDS011;3413;47.680;9.166;2022-09-09T14:47:19;4.27;;;1.60;;
6751;SDS011;3413;47.680;9.166;2022-09-09T14:52:23;2.90;;;1.57;;
6751;SDS011;3413;47.680;9.166;2022-09-09T14:57:26;5.17;;;1.30;;
6751;SDS011;3413;47.680;9.166;2022-09-09T15:02:29;2.60;;;1.10;;
6751;SDS011;3413;47.680;9.166;2022-09-09T15:07:31;5.73;;;1.37;;
6751;SDS011;3413;47.680;9.166;2022-09-09T15:12:33;4.10;;;1.33;;
6751;SDS011;3413;47.680;9.166;2022-09-09T15:17:36;5.23;;;1.43;;
6751;SDS011;3413;47.680;9.166;2022-09-09T15:22:38;2.30;;;1.00;;
6751;SDS011;3413;47.680;9.166;2022-09-09T15:27:42;3.97;;;1.50;;
6751;SDS011;3413;47.680;9.166;2022-09-09T15:32:45;2.70;;;1.07;;
6751;SDS011;3413;47.680;9.166;2022-09-09T15:37:46;4.33;;;1.00;;
6751;SDS011;3413;47.680;9.166;2022-09-09T15:42:49;5.17;;;0.97;;
6751;SDS011;3413;47.680;9.166;2022-09-09T15:47:51;3.87;;;0.97;;
6751;SDS011;3413;47.680;9.166;2022-09-09T15:52:53;3.43;;;0.90;;
6751;SDS011;3413;47.680;9.166;2022-09-09T15:57:56;5.03;;;0.97;;
6751;SDS011;3413;47.680;9.166;2022-09-09T16:02:58;7.50;;;1.40;;
6751;SDS011;3413;47.680;9.166;2022-09-09T16:08:00;1.87;;;0.83;;
6751;SDS011;3413;47.680;9.166;2022-09-09T16:13:03;2.23;;;0.90;;
6751;SDS011;3413;47.680;9.166;2022-09-09T16:18:05;2.50;;;1.10;;
6751;SDS011;3413;47.680;9.166;2022-09-09T16:23:07;4.80;;;1.30;;
6751;SDS011;3413;47.680;9.166;2022-09-09T16:28:10;3.03;;;0.70;;
6751;SDS011;3413;47.680;9.166;2022-09-09T16:33:11;3.50;;;0.87;;
6751;SDS011;3413;47.680;9.166;2022-09-09T16:38:15;4.10;;;1.13;;
6751;SDS011;3413;47.680;9.166;2022-09-09T16:43:18;2.60;;;1.00;;
6751;SDS011;3413;47.680;9.166;2022-09-09T16:48:21;1.70;;;1.00;;
6751;SDS011;3413;47.680;9.166;2022-09-09T16:53:23;3.70;;;0.97;;
6751;SDS011;3413;47.680;9.166;2022-09-09T16:58:26;4.00;;;1.20;;
6751;SDS011;3413;47.680;9.166;2022-09-09T17:03:28;4.27;;;1.37;;
6751;SDS011;3413;47.680;9.166;2022-09-09T17:08:30;3.10;;;1.20;;
6751;SDS011;3413;47.680;9.166;2022-09-09T17:13:34;3.97;;;1.10;;
6751;SDS011;3413;47.680;9.166;2022-09-09T17:18:37;3.47;;;1.27;;
6751;SDS011;3413;47.680;9.166;2022-09-09T17:23:39;3.90;;;1.30;;
6751;SDS011;3413;47.680;9.166;2022-09-09T17:28:42;4.37;;;1.07;;
6751;SDS011;3413;47.680;9.166;2022-09-09T17:33:47;3.73;;;1.80;;
6751;SDS011;3413;47.680;9.166;2022-09-09T17:38:50;4.80;;;1.53;;
6751;SDS011;3413;47.680;9.166;2022-09-09T17:43:53;4.00;;;1.57;;
6751;SDS011;3413;47.680;9.166;2022-09-09T17:48:56;5.13;;;1.60;;
6751;SDS011;3413;47.680;9.166;2022-09-09T17:54:00;4.77;;;2.47;;
6751;SDS011;3413;47.680;9.166;2022-09-09T17:59:05;5.40;;;1.53;;
6751;SDS011;3413;47.680;9.166;2022-09-09T18:04:08;4.57;;;1.10;;
6751;SDS011;3413;47.680;9.166;2022-09-09T18:09:12;4.77;;;1.30;;
6751;SDS011;3413;47.680;9.166;2022-09-09T18:14:17;4.40;;;1.50;;
6751;SDS011;3413;47.680;9.166;2022-09-09T18:19:22;3.30;;;1.10;;
6751;SDS011;3413;47.680;9.166;2022-09-09T18:24:24;6.27;;;1.37;;
6751;SDS011;3413;47.680;9.166;2022-09-09T18:29:27;3.77;;;1.10;;
6751;SDS011;3413;47.680;9.166;2022-09-09T18:34:30;3.87;;;1.10;;
6751;SDS011;3413;47.680;9.166;2022-09-09T18:39:32;2.53;;;1.00;;
6751;SDS011;3413;47.680;9.166;2022-09-09T18:44:34;3.80;;;1.37;;
6751;SDS011;3413;47.680;9.166;2022-09-09T18:49:37;5.10;;;1.63;;
6751;SDS011;3413;47.680;9.166;2022-09-09T18:54:38;7.67;;;1.30;;
6751;SDS011;3413;47.680;9.166;2022-09-09T18:59:44;2.43;;;1.40;;
6751;SDS011;3413;47.680;9.166;2022-09-09T19:04:46;17.10;;;1.70;;
6751;SDS011;3413;47.680;9.166;2022-09-09T19:09:48;3.10;;;1.33;;
6751;SDS011;3413;47.680;9.166;2022-09-09T19:14:50;4.27;;;1.33;;
6751;SDS011;3413;47.680;9.166;2022-09-09T19:19:52;5.10;;;1.30;;
6751;SDS011;3413;47.680;9.166;2022-09-09T19:24:55;4.27;;;1.20;;
6751;SDS011;3413;47.680;9.166;2022-09-09T19:29:59;5.70;;;1.37;;
6751;SDS011;3413;47.680;9.166;2022-09-09T19:35:01;3.50;;;1.30;;
6751;SDS011;3413;47.680;9.166;2022-09-09T19:40:03;7.00;;;1.40;;
6751;SDS011;3413;47.680;9.166;2022-09-09T19:45:08;4.20;;;1.40;;
6751;SDS011;3413;47.680;9.166;2022-09-09T19:50:10;3.73;;;2.00;;
6751;SDS011;3413;47.680;9.166;2022-09-09T19:55:14;4.70;;;1.60;;
6751;SDS011;3413;47.680;9.166;2022-09-09T20:00:15;3.03;;;1.40;;
6751;SDS011;3413;47.680;9.166;2022-09-09T20:05:19;3.73;;;1.23;;
6751;SDS011;3413;47.680;9.166;2022-09-09T20:10:21;3.70;;;1.07;;
6751;SDS011;3413;47.680;9.166;2022-09-09T20:15:23;2.03;;;0.90;;
6751;SDS011;3413;47.680;9.166;2022-09-09T20:20:25;1.97;;;1.10;;
6751;SDS011;3413;47.680;9.166;2022-09-09T20:25:27;2.17;;;1.00;;
6751;SDS011;3413;47.680;9.166;2022-09-09T20:30:29;4.77;;;1.00;;
6751;SDS011;3413;47.680;9.166;2022-09-09T20:35:38;3.80;;;1.20;;
6751;SDS011;3413;47.680;9.166;2022-09-09T20:40:40;1.83;;;0.90;;
6751;SDS011;3413;47.680;9.166;2022-09-09T20:45:42;2.30;;;1.10;;
6751;SDS011;3413;47.680;9.166;2022-09-09T20:50:45;3.30;;;1.40;;
6751;SDS011;3413;47.680;9.166;2022-09-09T20:55:47;2.37;;;1.07;;
6751;SDS011;3413;47.680;9.166;2022-09-09T21:00:51;2.00;;;1.20;;
6751;SDS011;3413;47.680;9.166;2022-09-09T21:05:53;2.90;;;1.17;;
6751;SDS011;3413;47.680;9.166;2022-09-09T21:10:56;3.27;;;1.90;;
6751;SDS011;3413;47.680;9.166;2022-09-09T21:15:58;8.17;;;1.30;;
6751;SDS011;3413;47.680;9.166;2022-09-09T21:21:01;2.17;;;1.10;;
6751;SDS011;3413;47.680;9.166;2022-09-09T21:26:04;4.00;;;1.33;;
6751;SDS011;3413;47.680;9.166;2022-09-09T21:31:10;3.63;;;1.20;;
6751;SDS011;3413;47.680;9.166;2022-09-09T21:36:14;2.17;;;1.20;;
6751;SDS011;3413;47.680;9.166;2022-09-09T21:41:16;2.60;;;1.30;;
6751;SDS011;3413;47.680;9.166;2022-09-09T21:46:19;2.43;;;1.27;;
6751;SDS011;3413;47.680;9.166;2022-09-09T21:51:23;2.23;;;1.40;;
6751;SDS011;3413;47.680;9.166;2022-09-09T21:56:25;2.03;;;1.10;;
6751;SDS011;3413;47.680;9.166;2022-09-09T22:01:28;3.37;;;1.33;;
6751;SDS011;3413;47.680;9.166;2022-09-09T22:06:33;2.10;;;1.10;;
6751;SDS011;3413;47.680;9.166;2022-09-09T22:11:35;4.07;;;1.30;;
6751;SDS011;3413;47.680;9.166;2022-09-09T22:16:37;2.40;;;1.33;;
6751;SDS011;3413;47.680;9.166;2022-09-09T22:21:40;3.37;;;1.30;;
6751;SDS011;3413;47.680;9.166;2022-09-09T22:26:42;2.53;;;1.10;;
6751;SDS011;3413;47.680;9.166;2022-09-09T22:31:44;2.10;;;1.20;;
6751;SDS011;3413;47.680;9.166;2022-09-09T22:36:47;3.33;;;1.20;;
6751;SDS011;3413;47.680;9.166;2022-09-09T22:41:51;2.30;;;1.10;;
6751;SDS011;3413;47.680;9.166;2022-09-09T22:46:53;5.10;;;1.20;;
6751;SDS011;3413;47.680;9.166;2022-09-09T22:51:56;4.00;;;1.20;;
6751;SDS011;3413;47.680;9.166;2022-09-09T22:56:58;1.50;;;1.03;;
6751;SDS011;3413;47.680;9.166;2022-09-09T23:02:00;1.90;;;1.10;;
6751;SDS011;3413;47.680;9.166;2022-09-09T23:07:02;3.47;;;1.17;;
6751;SDS011;3413;47.680;9.166;2022-09-09T23:12:07;3.27;;;1.20;;
6751;SDS011;3413;47.680;9.166;2022-09-09T23:17:09;2.77;;;1.07;;
6751;SDS011;3413;47.680;9.166;2022-09-09T23:22:14;2.80;;;1.17;;
6751;SDS011;3413;47.680;9.166;2022-09-09T23:27:16;4.80;;;1.13;;
6751;SDS011;3413;47.680;9.166;2022-09-09T23:32:18;5.70;;;1.20;;
6751;SDS011;3413;47.680;9.166;2022-09-09T23:37:20;1.93;;;1.27;;
6751;SDS011;3413;47.680;9.166;2022-09-09T23:42:22;2.37;;;1.17;;
6751;SDS011;3413;47.680;9.166;2022-09-09T23:47:26;2.90;;;1.20;;
6751;SDS011;3413;47.680;9.166;2022-09-09T23:52:28;3.53;;;1.07;;
6751;SDS011;3413;47.680;9.166;2022-09-09T23:57:30;3.10;;;1.07;;
